sensor_id;sensor_type;location;lat;lon;timestamp;temperature;humidity
5960;DHT22;3006;50.956;7.002;2023-09-30T00:01:51;15.30;87.00
5960;DHT22;3006;50.956;7.002;2023-09-30T00:04:19;15.30;86.70
5960;DHT22;3006;50.956;7.002;2023-09-30T00:06:48;15.30;86.70
5960;DHT22;3006;50.956;7.002;2023-09-30T00:09:16;15.00;86.90
5960;DHT22;3006;50.956;7.002;2023-09-30T00:11:44;14.90;87.60
5960;DHT22;3006;50.956;7.002;2023-09-30T00:14:12;14.80;88.20
5960;DHT22;3006;50.956;7.002;2023-09-30T00:16:41;14.80;88.30
5960;DHT22;3006;50.956;7.002;2023-09-30T00:19:10;14.80;88.50
5960;DHT22;3006;50.956;7.002;2023-09-30T00:21:38;14.70;88.40
5960;DHT22;3006;50.956;7.002;2023-09-30T00:24:06;14.70;88.70
5960;DHT22;3006;50.956;7.002;2023-09-30T00:26:35;14.80;87.90
5960;DHT22;3006;50.956;7.002;2023-09-30T00:29:03;14.80;88.20
5960;DHT22;3006;50.956;7.002;2023-09-30T00:31:31;14.70;88.30
5960;DHT22;3006;50.956;7.002;2023-09-30T00:34:02;14.80;88.00
5960;DHT22;3006;50.956;7.002;2023-09-30T00:36:30;14.70;88.00
5960;DHT22;3006;50.956;7.002;2023-09-30T00:38:58;14.70;87.90
5960;DHT22;3006;50.956;7.002;2023-09-30T00:41:26;14.70;88.00
5960;DHT22;3006;50.956;7.002;2023-09-30T00:43:54;14.70;88.00
5960;DHT22;3006;50.956;7.002;2023-09-30T00:46:26;14.70;88.30
5960;DHT22;3006;50.956;7.002;2023-09-30T00:48:56;14.70;88.20
5960;DHT22;3006;50.956;7.002;2023-09-30T00:51:27;14.60;88.60
5960;DHT22;3006;50.956;7.002;2023-09-30T00:53:58;14.60;88.40
5960;DHT22;3006;50.956;7.002;2023-09-30T00:56:28;14.60;88.50
5960;DHT22;3006;50.956;7.002;2023-09-30T00:58:58;14.60;88.90
5960;DHT22;3006;50.956;7.002;2023-09-30T01:01:27;14.60;89.00
5960;DHT22;3006;50.956;7.002;2023-09-30T01:03:55;14.50;88.90
5960;DHT22;3006;50.956;7.002;2023-09-30T01:06:27;14.60;88.80
5960;DHT22;3006;50.956;7.002;2023-09-30T01:08:56;14.50;88.80
5960;DHT22;3006;50.956;7.002;2023-09-30T01:11:25;14.40;89.50
5960;DHT22;3006;50.956;7.002;2023-09-30T01:13:54;14.40;89.90
5960;DHT22;3006;50.956;7.002;2023-09-30T01:16:23;14.40;89.50
5960;DHT22;3006;50.956;7.002;2023-09-30T01:18:51;14.40;89.50
5960;DHT22;3006;50.956;7.002;2023-09-30T01:21:23;14.40;89.70
5960;DHT22;3006;50.956;7.002;2023-09-30T01:23:53;14.40;89.20
5960;DHT22;3006;50.956;7.002;2023-09-30T01:26:21;14.40;89.70
5960;DHT22;3006;50.956;7.002;2023-09-30T01:28:50;14.40;89.50
5960;DHT22;3006;50.956;7.002;2023-09-30T01:31:18;14.50;89.50
5960;DHT22;3006;50.956;7.002;2023-09-30T01:33:46;14.40;89.70
5960;DHT22;3006;50.956;7.002;2023-09-30T01:36:15;14.30;89.90
5960;DHT22;3006;50.956;7.002;2023-09-30T01:38:44;14.20;90.50
5960;DHT22;3006;50.956;7.002;2023-09-30T01:41:14;14.40;90.00
5960;DHT22;3006;50.956;7.002;2023-09-30T01:43:43;14.40;89.60
5960;DHT22;3006;50.956;7.002;2023-09-30T01:46:11;14.40;89.40
5960;DHT22;3006;50.956;7.002;2023-09-30T01:48:40;14.40;89.60
5960;DHT22;3006;50.956;7.002;2023-09-30T01:51:08;14.40;89.40
5960;DHT22;3006;50.956;7.002;2023-09-30T01:53:36;14.40;89.40
5960;DHT22;3006;50.956;7.002;2023-09-30T01:56:04;14.30;89.80
5960;DHT22;3006;50.956;7.002;2023-09-30T01:58:34;14.10;90.40
5960;DHT22;3006;50.956;7.002;2023-09-30T02:01:03;14.10;90.50
5960;DHT22;3006;50.956;7.002;2023-09-30T02:03:31;14.10;91.20
5960;DHT22;3006;50.956;7.002;2023-09-30T02:06:00;14.20;90.70
5960;DHT22;3006;50.956;7.002;2023-09-30T02:08:28;14.20;90.10
5960;DHT22;3006;50.956;7.002;2023-09-30T02:10:56;14.10;90.30
5960;DHT22;3006;50.956;7.002;2023-09-30T02:13:24;14.10;90.20
5960;DHT22;3006;50.956;7.002;2023-09-30T02:15:55;14.10;90.40
5960;DHT22;3006;50.956;7.002;2023-09-30T02:18:23;14.20;90.40
5960;DHT22;3006;50.956;7.002;2023-09-30T02:20:52;14.10;89.90
5960;DHT22;3006;50.956;7.002;2023-09-30T02:23:20;14.00;90.20
5960;DHT22;3006;50.956;7.002;2023-09-30T02:25:49;13.90;90.90
5960;DHT22;3006;50.956;7.002;2023-09-30T02:28:17;14.00;90.70
5960;DHT22;3006;50.956;7.002;2023-09-30T02:30:46;13.90;91.10
5960;DHT22;3006;50.956;7.002;2023-09-30T02:33:16;13.90;90.90
5960;DHT22;3006;50.956;7.002;2023-09-30T02:35:45;14.00;90.70
5960;DHT22;3006;50.956;7.002;2023-09-30T02:38:13;13.90;90.70
5960;DHT22;3006;50.956;7.002;2023-09-30T02:40:44;13.90;90.80
5960;DHT22;3006;50.956;7.002;2023-09-30T02:43:13;13.90;90.80
5960;DHT22;3006;50.956;7.002;2023-09-30T02:45:41;13.90;90.60
5960;DHT22;3006;50.956;7.002;2023-09-30T02:48:10;13.90;91.40
5960;DHT22;3006;50.956;7.002;2023-09-30T02:50:42;14.00;91.10
5960;DHT22;3006;50.956;7.002;2023-09-30T02:53:11;14.00;90.60
5960;DHT22;3006;50.956;7.002;2023-09-30T02:55:40;14.00;90.60
5960;DHT22;3006;50.956;7.002;2023-09-30T02:58:10;13.90;91.10
5960;DHT22;3006;50.956;7.002;2023-09-30T03:00:39;13.90;90.80
5960;DHT22;3006;50.956;7.002;2023-09-30T03:03:07;13.90;90.40
5960;DHT22;3006;50.956;7.002;2023-09-30T03:05:35;13.90;90.60
5960;DHT22;3006;50.956;7.002;2023-09-30T03:08:06;13.90;90.00
5960;DHT22;3006;50.956;7.002;2023-09-30T03:10:34;13.80;90.60
5960;DHT22;3006;50.956;7.002;2023-09-30T03:13:07;13.70;91.10
5960;DHT22;3006;50.956;7.002;2023-09-30T03:15:36;13.60;90.90
5960;DHT22;3006;50.956;7.002;2023-09-30T03:18:05;13.50;91.30
5960;DHT22;3006;50.956;7.002;2023-09-30T03:20:34;13.50;91.80
5960;DHT22;3006;50.956;7.002;2023-09-30T03:23:03;13.60;91.40
5960;DHT22;3006;50.956;7.002;2023-09-30T03:25:34;13.60;91.40
5960;DHT22;3006;50.956;7.002;2023-09-30T03:28:02;13.70;90.70
5960;DHT22;3006;50.956;7.002;2023-09-30T03:30:33;13.70;90.80
5960;DHT22;3006;50.956;7.002;2023-09-30T03:33:01;13.50;91.30
5960;DHT22;3006;50.956;7.002;2023-09-30T03:35:31;13.60;91.20
5960;DHT22;3006;50.956;7.002;2023-09-30T03:37:59;13.50;91.30
5960;DHT22;3006;50.956;7.002;2023-09-30T03:40:29;13.50;91.10
5960;DHT22;3006;50.956;7.002;2023-09-30T03:43:02;13.50;91.90
5960;DHT22;3006;50.956;7.002;2023-09-30T03:45:30;13.40;91.50
5960;DHT22;3006;50.956;7.002;2023-09-30T03:48:01;13.30;92.00
5960;DHT22;3006;50.956;7.002;2023-09-30T03:50:30;13.50;91.80
5960;DHT22;3006;50.956;7.002;2023-09-30T03:53:01;13.50;91.30
5960;DHT22;3006;50.956;7.002;2023-09-30T03:55:30;13.40;91.30
5960;DHT22;3006;50.956;7.002;2023-09-30T03:57:58;13.50;90.70
5960;DHT22;3006;50.956;7.002;2023-09-30T04:00:28;13.30;90.70
5960;DHT22;3006;50.956;7.002;2023-09-30T04:02:56;13.30;91.20
5960;DHT22;3006;50.956;7.002;2023-09-30T04:05:26;13.20;91.10
5960;DHT22;3006;50.956;7.002;2023-09-30T04:07:56;13.10;92.10
5960;DHT22;3006;50.956;7.002;2023-09-30T04:10:25;13.10;91.90
5960;DHT22;3006;50.956;7.002;2023-09-30T04:12:54;13.30;91.40
5960;DHT22;3006;50.956;7.002;2023-09-30T04:15:23;13.30;90.90
5960;DHT22;3006;50.956;7.002;2023-09-30T04:17:52;13.10;91.90
5960;DHT22;3006;50.956;7.002;2023-09-30T04:20:20;13.10;91.30
5960;DHT22;3006;50.956;7.002;2023-09-30T04:22:50;13.10;91.80
5960;DHT22;3006;50.956;7.002;2023-09-30T04:25:24;13.10;91.10
5960;DHT22;3006;50.956;7.002;2023-09-30T04:27:52;13.20;91.20
5960;DHT22;3006;50.956;7.002;2023-09-30T04:30:21;13.10;90.80
5960;DHT22;3006;50.956;7.002;2023-09-30T04:32:50;13.00;91.60
5960;DHT22;3006;50.956;7.002;2023-09-30T04:35:19;13.00;91.80
5960;DHT22;3006;50.956;7.002;2023-09-30T04:37:48;12.90;92.00
5960;DHT22;3006;50.956;7.002;2023-09-30T04:40:18;13.00;91.90
5960;DHT22;3006;50.956;7.002;2023-09-30T04:42:48;13.10;91.50
5960;DHT22;3006;50.956;7.002;2023-09-30T04:45:16;13.10;90.60
5960;DHT22;3006;50.956;7.002;2023-09-30T04:47:47;13.10;90.80
5960;DHT22;3006;50.956;7.002;2023-09-30T04:50:16;12.90;90.60
5960;DHT22;3006;50.956;7.002;2023-09-30T04:52:46;12.90;91.50
5960;DHT22;3006;50.956;7.002;2023-09-30T04:55:14;12.90;91.40
5960;DHT22;3006;50.956;7.002;2023-09-30T04:57:44;12.90;91.00
5960;DHT22;3006;50.956;7.002;2023-09-30T05:00:14;12.90;91.30
5960;DHT22;3006;50.956;7.002;2023-09-30T05:02:44;12.70;91.70
5960;DHT22;3006;50.956;7.002;2023-09-30T05:05:13;12.60;92.70
5960;DHT22;3006;50.956;7.002;2023-09-30T05:07:42;12.70;92.40
5960;DHT22;3006;50.956;7.002;2023-09-30T05:10:12;12.80;91.40
5960;DHT22;3006;50.956;7.002;2023-09-30T05:12:43;12.80;91.20
5960;DHT22;3006;50.956;7.002;2023-09-30T05:15:14;12.80;90.90
5960;DHT22;3006;50.956;7.002;2023-09-30T05:17:44;12.80;91.10
5960;DHT22;3006;50.956;7.002;2023-09-30T05:20:13;12.80;90.80
5960;DHT22;3006;50.956;7.002;2023-09-30T05:22:44;12.60;91.50
5960;DHT22;3006;50.956;7.002;2023-09-30T05:25:15;12.60;91.50
5960;DHT22;3006;50.956;7.002;2023-09-30T05:27:45;12.50;91.90
5960;DHT22;3006;50.956;7.002;2023-09-30T05:30:15;12.50;92.00
5960;DHT22;3006;50.956;7.002;2023-09-30T05:32:43;12.70;91.60
5960;DHT22;3006;50.956;7.002;2023-09-30T05:35:14;12.80;90.90
5960;DHT22;3006;50.956;7.002;2023-09-30T05:37:45;12.70;90.60
5960;DHT22;3006;50.956;7.002;2023-09-30T05:40:14;12.50;91.60
5960;DHT22;3006;50.956;7.002;2023-09-30T05:42:50;12.50;91.60
5960;DHT22;3006;50.956;7.002;2023-09-30T05:45:19;12.50;91.80
5960;DHT22;3006;50.956;7.002;2023-09-30T05:47:48;12.60;91.60
5960;DHT22;3006;50.956;7.002;2023-09-30T05:50:19;12.60;91.90
5960;DHT22;3006;50.956;7.002;2023-09-30T05:52:51;12.50;92.20
5960;DHT22;3006;50.956;7.002;2023-09-30T05:55:22;12.50;92.70
5960;DHT22;3006;50.956;7.002;2023-09-30T06:07:01;12.70;92.70
5960;DHT22;3006;50.956;7.002;2023-09-30T06:09:29;12.60;92.90
5960;DHT22;3006;50.956;7.002;2023-09-30T06:11:58;12.60;92.90
5960;DHT22;3006;50.956;7.002;2023-09-30T06:14:30;12.60;93.50
5960;DHT22;3006;50.956;7.002;2023-09-30T06:16:58;12.80;92.60
5960;DHT22;3006;50.956;7.002;2023-09-30T06:19:27;13.00;92.10
5960;DHT22;3006;50.956;7.002;2023-09-30T06:21:58;13.00;91.80
5960;DHT22;3006;50.956;7.002;2023-09-30T06:24:26;12.80;92.60
5960;DHT22;3006;50.956;7.002;2023-09-30T06:26:55;12.80;93.30
5960;DHT22;3006;50.956;7.002;2023-09-30T06:29:24;13.00;92.20
5960;DHT22;3006;50.956;7.002;2023-09-30T06:31:53;12.80;93.60
5960;DHT22;3006;50.956;7.002;2023-09-30T06:34:21;12.80;93.60
5960;DHT22;3006;50.956;7.002;2023-09-30T06:36:49;12.80;94.00
5960;DHT22;3006;50.956;7.002;2023-09-30T06:39:19;12.90;94.10
5960;DHT22;3006;50.956;7.002;2023-09-30T06:41:47;13.00;94.00
5960;DHT22;3006;50.956;7.002;2023-09-30T06:44:16;13.00;94.10
5960;DHT22;3006;50.956;7.002;2023-09-30T06:46:45;13.10;94.40
5960;DHT22;3006;50.956;7.002;2023-09-30T06:49:13;13.00;94.90
5960;DHT22;3006;50.956;7.002;2023-09-30T06:51:42;13.00;95.20
5960;DHT22;3006;50.956;7.002;2023-09-30T06:54:10;13.00;95.50
5960;DHT22;3006;50.956;7.002;2023-09-30T06:56:38;12.80;96.40
5960;DHT22;3006;50.956;7.002;2023-09-30T06:59:08;12.80;96.50
5960;DHT22;3006;50.956;7.002;2023-09-30T07:01:36;12.90;95.90
5960;DHT22;3006;50.956;7.002;2023-09-30T07:04:05;12.90;96.20
5960;DHT22;3006;50.956;7.002;2023-09-30T07:06:34;12.90;96.50
5960;DHT22;3006;50.956;7.002;2023-09-30T07:09:02;13.00;95.80
5960;DHT22;3006;50.956;7.002;2023-09-30T07:11:31;13.00;95.80
5960;DHT22;3006;50.956;7.002;2023-09-30T07:14:00;13.00;95.50
5960;DHT22;3006;50.956;7.002;2023-09-30T07:16:28;13.10;95.80
5960;DHT22;3006;50.956;7.002;2023-09-30T07:18:56;13.00;96.10
5960;DHT22;3006;50.956;7.002;2023-09-30T07:21:26;13.00;96.80
5960;DHT22;3006;50.956;7.002;2023-09-30T07:23:54;13.00;96.40
5960;DHT22;3006;50.956;7.002;2023-09-30T07:26:24;12.90;97.20
5960;DHT22;3006;50.956;7.002;2023-09-30T07:28:52;13.00;97.20
5960;DHT22;3006;50.956;7.002;2023-09-30T07:31:21;13.30;96.00
5960;DHT22;3006;50.956;7.002;2023-09-30T07:33:50;13.30;95.80
5960;DHT22;3006;50.956;7.002;2023-09-30T07:36:19;13.30;96.20
5960;DHT22;3006;50.956;7.002;2023-09-30T07:38:48;13.30;96.40
5960;DHT22;3006;50.956;7.002;2023-09-30T07:41:16;13.30;96.30
5960;DHT22;3006;50.956;7.002;2023-09-30T07:43:44;13.50;96.00
5960;DHT22;3006;50.956;7.002;2023-09-30T07:46:12;13.50;95.30
5960;DHT22;3006;50.956;7.002;2023-09-30T07:48:42;13.70;95.20
5960;DHT22;3006;50.956;7.002;2023-09-30T07:51:10;13.80;94.30
5960;DHT22;3006;50.956;7.002;2023-09-30T07:53:40;13.80;94.60
5960;DHT22;3006;50.956;7.002;2023-09-30T07:56:10;14.00;94.00
5960;DHT22;3006;50.956;7.002;2023-09-30T07:58:38;14.00;93.60
5960;DHT22;3006;50.956;7.002;2023-09-30T08:01:07;14.30;92.10
5960;DHT22;3006;50.956;7.002;2023-09-30T08:03:36;13.90;92.90
5960;DHT22;3006;50.956;7.002;2023-09-30T08:06:07;14.00;93.10
5960;DHT22;3006;50.956;7.002;2023-09-30T08:08:36;14.10;92.40
5960;DHT22;3006;50.956;7.002;2023-09-30T08:11:04;14.00;92.90
5960;DHT22;3006;50.956;7.002;2023-09-30T08:13:33;14.00;93.00
5960;DHT22;3006;50.956;7.002;2023-09-30T08:16:02;14.10;93.20
5960;DHT22;3006;50.956;7.002;2023-09-30T08:18:30;14.20;93.10
5960;DHT22;3006;50.956;7.002;2023-09-30T08:20:59;14.30;91.70
5960;DHT22;3006;50.956;7.002;2023-09-30T08:23:27;14.30;92.20
5960;DHT22;3006;50.956;7.002;2023-09-30T08:25:58;14.30;92.40
5960;DHT22;3006;50.956;7.002;2023-09-30T08:28:26;14.20;91.50
5960;DHT22;3006;50.956;7.002;2023-09-30T08:30:55;14.20;92.30
5960;DHT22;3006;50.956;7.002;2023-09-30T08:33:29;14.30;92.70
5960;DHT22;3006;50.956;7.002;2023-09-30T08:36:02;14.60;90.90
5960;DHT22;3006;50.956;7.002;2023-09-30T08:38:34;14.70;90.60
5960;DHT22;3006;50.956;7.002;2023-09-30T08:41:03;14.70;90.50
5960;DHT22;3006;50.956;7.002;2023-09-30T08:43:31;14.70;90.50
5960;DHT22;3006;50.956;7.002;2023-09-30T08:46:07;14.70;89.80
5960;DHT22;3006;50.956;7.002;2023-09-30T08:48:35;14.50;91.00
5960;DHT22;3006;50.956;7.002;2023-09-30T08:51:04;14.60;90.30
5960;DHT22;3006;50.956;7.002;2023-09-30T08:53:32;14.70;90.00
5960;DHT22;3006;50.956;7.002;2023-09-30T08:56:01;14.70;90.30
5960;DHT22;3006;50.956;7.002;2023-09-30T08:58:34;14.70;90.10
5960;DHT22;3006;50.956;7.002;2023-09-30T09:01:02;14.80;89.90
5960;DHT22;3006;50.956;7.002;2023-09-30T09:03:32;14.90;89.00
5960;DHT22;3006;50.956;7.002;2023-09-30T09:06:01;15.00;89.10
5960;DHT22;3006;50.956;7.002;2023-09-30T09:08:29;15.00;89.30
5960;DHT22;3006;50.956;7.002;2023-09-30T09:11:00;15.20;88.40
5960;DHT22;3006;50.956;7.002;2023-09-30T09:13:45;15.30;87.30
5960;DHT22;3006;50.956;7.002;2023-09-30T09:16:16;15.40;86.60
5960;DHT22;3006;50.956;7.002;2023-09-30T09:18:47;15.30;87.20
5960;DHT22;3006;50.956;7.002;2023-09-30T09:21:17;15.30;87.50
5960;DHT22;3006;50.956;7.002;2023-09-30T09:23:47;15.40;86.60
5960;DHT22;3006;50.956;7.002;2023-09-30T09:26:24;15.30;87.10
5960;DHT22;3006;50.956;7.002;2023-09-30T09:28:56;15.30;86.70
5960;DHT22;3006;50.956;7.002;2023-09-30T09:31:27;15.40;86.80
5960;DHT22;3006;50.956;7.002;2023-09-30T09:33:57;15.60;86.40
5960;DHT22;3006;50.956;7.002;2023-09-30T09:36:39;15.60;85.90
5960;DHT22;3006;50.956;7.002;2023-09-30T09:39:08;15.80;85.70
5960;DHT22;3006;50.956;7.002;2023-09-30T09:41:49;15.90;85.20
5960;DHT22;3006;50.956;7.002;2023-09-30T09:44:19;16.00;84.40
5960;DHT22;3006;50.956;7.002;2023-09-30T09:46:48;16.00;84.30
5960;DHT22;3006;50.956;7.002;2023-09-30T09:49:20;16.00;84.70
5960;DHT22;3006;50.956;7.002;2023-09-30T09:51:48;16.00;85.20
5960;DHT22;3006;50.956;7.002;2023-09-30T09:54:17;16.00;84.80
5960;DHT22;3006;50.956;7.002;2023-09-30T09:56:45;16.30;83.90
5960;DHT22;3006;50.956;7.002;2023-09-30T09:59:14;16.40;83.40
5960;DHT22;3006;50.956;7.002;2023-09-30T10:01:42;16.50;83.10
5960;DHT22;3006;50.956;7.002;2023-09-30T10:04:12;16.50;82.70
5960;DHT22;3006;50.956;7.002;2023-09-30T10:06:45;16.40;83.00
5960;DHT22;3006;50.956;7.002;2023-09-30T10:09:15;16.50;83.00
5960;DHT22;3006;50.956;7.002;2023-09-30T10:11:45;16.40;81.70
5960;DHT22;3006;50.956;7.002;2023-09-30T10:14:30;16.30;82.70
5960;DHT22;3006;50.956;7.002;2023-09-30T10:16:59;16.40;82.60
5960;DHT22;3006;50.956;7.002;2023-09-30T10:19:28;16.40;82.00
5960;DHT22;3006;50.956;7.002;2023-09-30T10:22:21;16.40;81.70
5960;DHT22;3006;50.956;7.002;2023-09-30T10:24:53;16.40;82.40
5960;DHT22;3006;50.956;7.002;2023-09-30T10:27:32;16.50;81.50
5960;DHT22;3006;50.956;7.002;2023-09-30T10:30:07;16.60;80.80
5960;DHT22;3006;50.956;7.002;2023-09-30T10:33:08;16.90;79.90
5960;DHT22;3006;50.956;7.002;2023-09-30T10:35:47;16.90;79.70
5960;DHT22;3006;50.956;7.002;2023-09-30T10:38:42;16.90;78.90
5960;DHT22;3006;50.956;7.002;2023-09-30T10:41:10;16.90;79.10
5960;DHT22;3006;50.956;7.002;2023-09-30T10:43:40;17.00;79.00
5960;DHT22;3006;50.956;7.002;2023-09-30T10:46:29;17.20;78.30
5960;DHT22;3006;50.956;7.002;2023-09-30T10:49:15;17.20;77.70
5960;DHT22;3006;50.956;7.002;2023-09-30T10:51:44;17.50;76.30
5960;DHT22;3006;50.956;7.002;2023-09-30T10:54:22;17.50;75.10
5960;DHT22;3006;50.956;7.002;2023-09-30T10:56:51;17.50;75.40
5960;DHT22;3006;50.956;7.002;2023-09-30T10:59:21;17.40;73.90
5960;DHT22;3006;50.956;7.002;2023-09-30T11:01:50;17.50;73.70
5960;DHT22;3006;50.956;7.002;2023-09-30T11:04:19;17.40;72.60
5960;DHT22;3006;50.956;7.002;2023-09-30T11:06:48;17.40;72.10
5960;DHT22;3006;50.956;7.002;2023-09-30T11:09:21;17.20;71.90
5960;DHT22;3006;50.956;7.002;2023-09-30T11:11:51;17.20;71.30
5960;DHT22;3006;50.956;7.002;2023-09-30T11:14:22;17.40;71.50
5960;DHT22;3006;50.956;7.002;2023-09-30T11:16:56;17.50;70.90
5960;DHT22;3006;50.956;7.002;2023-09-30T11:19:27;17.60;70.30
5960;DHT22;3006;50.956;7.002;2023-09-30T11:21:57;17.50;70.50
5960;DHT22;3006;50.956;7.002;2023-09-30T11:24:27;17.40;70.70
5960;DHT22;3006;50.956;7.002;2023-09-30T11:26:56;17.50;70.30
5960;DHT22;3006;50.956;7.002;2023-09-30T11:29:25;17.60;70.80
5960;DHT22;3006;50.956;7.002;2023-09-30T11:31:53;17.90;70.10
5960;DHT22;3006;50.956;7.002;2023-09-30T11:34:31;18.00;69.80
5960;DHT22;3006;50.956;7.002;2023-09-30T11:37:00;18.20;68.90
5960;DHT22;3006;50.956;7.002;2023-09-30T11:39:30;18.20;69.10
5960;DHT22;3006;50.956;7.002;2023-09-30T11:42:00;18.10;68.50
5960;DHT22;3006;50.956;7.002;2023-09-30T11:44:29;18.00;68.50
5960;DHT22;3006;50.956;7.002;2023-09-30T11:46:59;17.90;68.60
5960;DHT22;3006;50.956;7.002;2023-09-30T11:49:30;18.00;68.60
5960;DHT22;3006;50.956;7.002;2023-09-30T11:52:00;18.20;68.50
5960;DHT22;3006;50.956;7.002;2023-09-30T11:54:32;18.10;67.90
5960;DHT22;3006;50.956;7.002;2023-09-30T11:57:01;18.20;68.00
5960;DHT22;3006;50.956;7.002;2023-09-30T11:59:30;18.30;66.50
5960;DHT22;3006;50.956;7.002;2023-09-30T12:01:59;18.00;66.40
5960;DHT22;3006;50.956;7.002;2023-09-30T12:04:43;18.00;67.10
5960;DHT22;3006;50.956;7.002;2023-09-30T12:07:12;18.00;67.10
5960;DHT22;3006;50.956;7.002;2023-09-30T12:09:42;18.00;67.30
5960;DHT22;3006;50.956;7.002;2023-09-30T12:12:10;18.00;67.10
5960;DHT22;3006;50.956;7.002;2023-09-30T12:14:41;18.10;66.50
5960;DHT22;3006;50.956;7.002;2023-09-30T12:17:09;18.20;65.50
5960;DHT22;3006;50.956;7.002;2023-09-30T12:19:39;18.20;65.50
5960;DHT22;3006;50.956;7.002;2023-09-30T12:22:09;18.30;65.60
5960;DHT22;3006;50.956;7.002;2023-09-30T12:24:38;18.30;64.30
5960;DHT22;3006;50.956;7.002;2023-09-30T12:27:09;18.30;64.10
5960;DHT22;3006;50.956;7.002;2023-09-30T12:29:37;18.40;63.50
5960;DHT22;3006;50.956;7.002;2023-09-30T12:32:06;18.40;62.70
5960;DHT22;3006;50.956;7.002;2023-09-30T12:34:35;18.40;62.20
5960;DHT22;3006;50.956;7.002;2023-09-30T12:37:03;18.60;61.50
5960;DHT22;3006;50.956;7.002;2023-09-30T12:39:31;18.50;61.60
5960;DHT22;3006;50.956;7.002;2023-09-30T12:42:00;18.70;61.20
5960;DHT22;3006;50.956;7.002;2023-09-30T12:44:37;18.90;60.70
5960;DHT22;3006;50.956;7.002;2023-09-30T12:47:05;19.00;60.00
5960;DHT22;3006;50.956;7.002;2023-09-30T12:49:33;19.10;59.50
5960;DHT22;3006;50.956;7.002;2023-09-30T12:52:02;19.20;59.10
5960;DHT22;3006;50.956;7.002;2023-09-30T12:54:31;19.30;58.90
5960;DHT22;3006;50.956;7.002;2023-09-30T12:57:01;19.30;59.10
5960;DHT22;3006;50.956;7.002;2023-09-30T12:59:29;19.50;59.10
5960;DHT22;3006;50.956;7.002;2023-09-30T13:01:59;19.70;59.00
5960;DHT22;3006;50.956;7.002;2023-09-30T13:04:27;19.70;57.00
5960;DHT22;3006;50.956;7.002;2023-09-30T13:06:55;19.70;56.70
5960;DHT22;3006;50.956;7.002;2023-09-30T13:09:23;19.70;55.60
5960;DHT22;3006;50.956;7.002;2023-09-30T13:11:51;19.70;55.90
5960;DHT22;3006;50.956;7.002;2023-09-30T13:14:19;19.90;56.10
5960;DHT22;3006;50.956;7.002;2023-09-30T13:16:47;20.00;55.50
5960;DHT22;3006;50.956;7.002;2023-09-30T13:19:17;20.30;55.20
5960;DHT22;3006;50.956;7.002;2023-09-30T13:21:48;20.30;55.00
5960;DHT22;3006;50.956;7.002;2023-09-30T13:24:17;20.50;57.20
5960;DHT22;3006;50.956;7.002;2023-09-30T13:26:45;21.00;54.00
5960;DHT22;3006;50.956;7.002;2023-09-30T13:29:13;20.70;54.50
5960;DHT22;3006;50.956;7.002;2023-09-30T13:31:43;20.90;54.10
5960;DHT22;3006;50.956;7.002;2023-09-30T13:34:11;21.10;54.00
5960;DHT22;3006;50.956;7.002;2023-09-30T13:36:42;20.80;54.20
5960;DHT22;3006;50.956;7.002;2023-09-30T13:39:10;21.10;53.40
5960;DHT22;3006;50.956;7.002;2023-09-30T13:41:40;20.90;53.70
5960;DHT22;3006;50.956;7.002;2023-09-30T13:44:08;20.80;53.90
5960;DHT22;3006;50.956;7.002;2023-09-30T13:46:37;20.90;55.50
5960;DHT22;3006;50.956;7.002;2023-09-30T13:49:06;21.50;54.40
5960;DHT22;3006;50.956;7.002;2023-09-30T13:51:34;21.40;53.10
5960;DHT22;3006;50.956;7.002;2023-09-30T13:54:05;21.30;52.80
5960;DHT22;3006;50.956;7.002;2023-09-30T13:56:34;21.30;52.70
5960;DHT22;3006;50.956;7.002;2023-09-30T13:59:02;21.40;53.40
5960;DHT22;3006;50.956;7.002;2023-09-30T14:01:30;21.20;51.60
5960;DHT22;3006;50.956;7.002;2023-09-30T14:03:58;20.70;53.40
5960;DHT22;3006;50.956;7.002;2023-09-30T14:06:27;20.20;54.20
5960;DHT22;3006;50.956;7.002;2023-09-30T14:08:56;20.50;54.60
5960;DHT22;3006;50.956;7.002;2023-09-30T14:11:26;20.30;54.00
5960;DHT22;3006;50.956;7.002;2023-09-30T14:13:57;20.00;54.80
5960;DHT22;3006;50.956;7.002;2023-09-30T14:16:25;20.10;55.50
5960;DHT22;3006;50.956;7.002;2023-09-30T14:18:53;20.40;55.70
5960;DHT22;3006;50.956;7.002;2023-09-30T14:21:22;20.60;55.90
5960;DHT22;3006;50.956;7.002;2023-09-30T14:23:50;21.10;54.90
5960;DHT22;3006;50.956;7.002;2023-09-30T14:26:18;21.80;52.40
5960;DHT22;3006;50.956;7.002;2023-09-30T14:28:48;22.00;51.50
5960;DHT22;3006;50.956;7.002;2023-09-30T14:31:16;21.50;52.30
5960;DHT22;3006;50.956;7.002;2023-09-30T14:33:44;21.10;52.80
5960;DHT22;3006;50.956;7.002;2023-09-30T14:36:12;21.00;54.30
5960;DHT22;3006;50.956;7.002;2023-09-30T14:38:40;20.90;53.20
5960;DHT22;3006;50.956;7.002;2023-09-30T14:41:10;20.50;53.90
5960;DHT22;3006;50.956;7.002;2023-09-30T14:43:39;20.30;53.90
5960;DHT22;3006;50.956;7.002;2023-09-30T14:46:08;20.10;54.50
5960;DHT22;3006;50.956;7.002;2023-09-30T14:48:36;20.00;54.60
5960;DHT22;3006;50.956;7.002;2023-09-30T14:51:05;19.90;54.70
5960;DHT22;3006;50.956;7.002;2023-09-30T14:53:35;19.80;56.00
5960;DHT22;3006;50.956;7.002;2023-09-30T14:56:03;19.80;57.20
5960;DHT22;3006;50.956;7.002;2023-09-30T14:58:32;19.90;57.20
5960;DHT22;3006;50.956;7.002;2023-09-30T15:01:00;19.70;57.90
5960;DHT22;3006;50.956;7.002;2023-09-30T15:03:30;19.70;56.60
5960;DHT22;3006;50.956;7.002;2023-09-30T15:06:02;19.70;55.90
5960;DHT22;3006;50.956;7.002;2023-09-30T15:08:31;19.70;56.50
5960;DHT22;3006;50.956;7.002;2023-09-30T15:11:00;19.90;57.70
5960;DHT22;3006;50.956;7.002;2023-09-30T15:13:29;20.00;57.50
5960;DHT22;3006;50.956;7.002;2023-09-30T15:15:57;20.00;57.40
5960;DHT22;3006;50.956;7.002;2023-09-30T15:18:25;20.00;57.50
5960;DHT22;3006;50.956;7.002;2023-09-30T15:20:55;20.00;57.50
5960;DHT22;3006;50.956;7.002;2023-09-30T15:23:23;20.10;57.20
5960;DHT22;3006;50.956;7.002;2023-09-30T15:25:51;20.10;57.10
5960;DHT22;3006;50.956;7.002;2023-09-30T15:28:19;20.10;57.20
5960;DHT22;3006;50.956;7.002;2023-09-30T15:30:50;20.00;57.50
5960;DHT22;3006;50.956;7.002;2023-09-30T15:33:18;20.00;57.90
5960;DHT22;3006;50.956;7.002;2023-09-30T15:35:46;19.90;57.90
5960;DHT22;3006;50.956;7.002;2023-09-30T15:38:16;19.90;58.00
5960;DHT22;3006;50.956;7.002;2023-09-30T15:40:51;19.80;57.80
5960;DHT22;3006;50.956;7.002;2023-09-30T15:43:20;19.70;57.70
5960;DHT22;3006;50.956;7.002;2023-09-30T15:45:50;19.70;57.70
5960;DHT22;3006;50.956;7.002;2023-09-30T15:48:18;19.90;57.30
5960;DHT22;3006;50.956;7.002;2023-09-30T15:50:47;19.70;57.70
5960;DHT22;3006;50.956;7.002;2023-09-30T15:53:17;19.80;57.70
5960;DHT22;3006;50.956;7.002;2023-09-30T15:55:45;20.00;57.20
5960;DHT22;3006;50.956;7.002;2023-09-30T15:58:14;19.90;57.50
5960;DHT22;3006;50.956;7.002;2023-09-30T16:00:43;19.90;57.70
5960;DHT22;3006;50.956;7.002;2023-09-30T16:03:11;19.80;57.70
5960;DHT22;3006;50.956;7.002;2023-09-30T16:05:39;19.60;58.50
5960;DHT22;3006;50.956;7.002;2023-09-30T16:08:09;19.60;58.90
5960;DHT22;3006;50.956;7.002;2023-09-30T16:10:39;19.50;59.30
5960;DHT22;3006;50.956;7.002;2023-09-30T16:13:08;19.50;59.40
5960;DHT22;3006;50.956;7.002;2023-09-30T16:15:38;19.50;59.50
5960;DHT22;3006;50.956;7.002;2023-09-30T16:18:08;19.50;59.40
5960;DHT22;3006;50.956;7.002;2023-09-30T16:20:36;19.40;59.60
5960;DHT22;3006;50.956;7.002;2023-09-30T16:23:04;19.20;60.30
5960;DHT22;3006;50.956;7.002;2023-09-30T16:25:33;19.10;60.70
5960;DHT22;3006;50.956;7.002;2023-09-30T16:28:03;19.00;61.10